sensor_id;sensor_type;location;lat;lon;timestamp;P1;durP1;ratioP1;P2;durP2;ratioP2
17201;SDS011;8717;53.588;10.176;2023-12-20T00:01:39;12.53;;;2.80;;
17201;SDS011;8717;53.588;10.176;2023-12-20T00:04:06;15.00;;;2.50;;
17201;SDS011;8717;53.588;10.176;2023-12-20T00:06:33;11.00;;;2.23;;
17201;SDS011;8717;53.588;10.176;2023-12-20T00:08:59;14.43;;;2.73;;
17201;SDS011;8717;53.588;10.176;2023-12-20T00:11:26;12.17;;;3.00;;
17201;SDS011;8717;53.588;10.176;2023-12-20T00:13:53;13.07;;;3.23;;
17201;SDS011;8717;53.588;10.176;2023-12-20T00:16:19;10.50;;;2.33;;
17201;SDS011;8717;53.588;10.176;2023-12-20T00:18:47;12.60;;;2.60;;
17201;SDS011;8717;53.588;10.176;2023-12-20T00:21:14;12.70;;;2.13;;
17201;SDS011;8717;53.588;10.176;2023-12-20T00:23:41;14.47;;;2.73;;
17201;SDS011;8717;53.588;10.176;2023-12-20T00:26:08;11.03;;;2.47;;
17201;SDS011;8717;53.588;10.176;2023-12-20T00:28:35;8.53;;;2.53;;
17201;SDS011;8717;53.588;10.176;2023-12-20T00:31:02;10.47;;;2.80;;
17201;SDS011;8717;53.588;10.176;2023-12-20T00:33:29;12.33;;;2.67;;
17201;SDS011;8717;53.588;10.176;2023-12-20T00:35:58;13.80;;;3.10;;
17201;SDS011;8717;53.588;10.176;2023-12-20T00:38:24;14.17;;;2.30;;
17201;SDS011;8717;53.588;10.176;2023-12-20T00:40:51;12.17;;;2.83;;
17201;SDS011;8717;53.588;10.176;2023-12-20T00:43:18;14.27;;;2.20;;
17201;SDS011;8717;53.588;10.176;2023-12-20T00:45:45;16.50;;;2.70;;
17201;SDS011;8717;53.588;10.176;2023-12-20T00:48:12;13.00;;;2.60;;
17201;SDS011;8717;53.588;10.176;2023-12-20T00:50:39;13.57;;;2.70;;
17201;SDS011;8717;53.588;10.176;2023-12-20T00:53:07;12.90;;;2.10;;
17201;SDS011;8717;53.588;10.176;2023-12-20T00:55:34;12.50;;;2.33;;
17201;SDS011;8717;53.588;10.176;2023-12-20T00:58:00;11.80;;;2.20;;
17201;SDS011;8717;53.588;10.176;2023-12-20T01:00:27;10.93;;;2.37;;
17201;SDS011;8717;53.588;10.176;2023-12-20T01:02:54;12.10;;;2.83;;
17201;SDS011;8717;53.588;10.176;2023-12-20T01:05:21;8.60;;;2.33;;
17201;SDS011;8717;53.588;10.176;2023-12-20T01:07:48;12.13;;;2.63;;
17201;SDS011;8717;53.588;10.176;2023-12-20T01:10:16;13.63;;;2.50;;
17201;SDS011;8717;53.588;10.176;2023-12-20T01:12:44;10.93;;;2.10;;
17201;SDS011;8717;53.588;10.176;2023-12-20T01:15:10;6.80;;;2.23;;
17201;SDS011;8717;53.588;10.176;2023-12-20T01:17:37;11.80;;;2.60;;
17201;SDS011;8717;53.588;10.176;2023-12-20T01:20:04;11.83;;;2.10;;
17201;SDS011;8717;53.588;10.176;2023-12-20T01:22:32;13.40;;;2.80;;
17201;SDS011;8717;53.588;10.176;2023-12-20T01:25:00;14.30;;;2.70;;
17201;SDS011;8717;53.588;10.176;2023-12-20T01:27:29;11.57;;;2.33;;
17201;SDS011;8717;53.588;10.176;2023-12-20T01:29:56;12.37;;;2.20;;
17201;SDS011;8717;53.588;10.176;2023-12-20T01:32:23;12.07;;;2.30;;
17201;SDS011;8717;53.588;10.176;2023-12-20T01:34:49;11.93;;;2.30;;
17201;SDS011;8717;53.588;10.176;2023-12-20T01:37:16;14.37;;;2.37;;
17201;SDS011;8717;53.588;10.176;2023-12-20T01:39:43;11.60;;;2.33;;
17201;SDS011;8717;53.588;10.176;2023-12-20T01:42:09;11.13;;;2.73;;
17201;SDS011;8717;53.588;10.176;2023-12-20T01:44:37;10.53;;;2.60;;
17201;SDS011;8717;53.588;10.176;2023-12-20T01:47:04;17.10;;;2.90;;
17201;SDS011;8717;53.588;10.176;2023-12-20T01:49:31;14.63;;;3.00;;
17201;SDS011;8717;53.588;10.176;2023-12-20T01:51:57;14.33;;;2.80;;
17201;SDS011;8717;53.588;10.176;2023-12-20T01:54:24;14.07;;;2.53;;
17201;SDS011;8717;53.588;10.176;2023-12-20T01:56:51;7.27;;;2.03;;
17201;SDS011;8717;53.588;10.176;2023-12-20T01:59:18;17.53;;;2.43;;
17201;SDS011;8717;53.588;10.176;2023-12-20T02:01:48;7.17;;;2.50;;
17201;SDS011;8717;53.588;10.176;2023-12-20T02:04:15;10.67;;;2.50;;
17201;SDS011;8717;53.588;10.176;2023-12-20T02:06:43;11.37;;;2.37;;
17201;SDS011;8717;53.588;10.176;2023-12-20T02:09:12;17.93;;;2.37;;
17201;SDS011;8717;53.588;10.176;2023-12-20T02:11:39;8.73;;;2.10;;
17201;SDS011;8717;53.588;10.176;2023-12-20T02:14:07;13.80;;;2.80;;
17201;SDS011;8717;53.588;10.176;2023-12-20T02:16:34;16.27;;;2.90;;
17201;SDS011;8717;53.588;10.176;2023-12-20T02:19:02;13.37;;;2.37;;
17201;SDS011;8717;53.588;10.176;2023-12-20T02:21:33;15.67;;;2.60;;
17201;SDS011;8717;53.588;10.176;2023-12-20T02:24:00;12.27;;;2.87;;
17201;SDS011;8717;53.588;10.176;2023-12-20T02:26:27;11.73;;;2.30;;
17201;SDS011;8717;53.588;10.176;2023-12-20T02:28:54;10.83;;;2.63;;
17201;SDS011;8717;53.588;10.176;2023-12-20T02:31:22;16.83;;;2.83;;
17201;SDS011;8717;53.588;10.176;2023-12-20T02:33:49;13.43;;;2.53;;
17201;SDS011;8717;53.588;10.176;2023-12-20T02:36:16;12.63;;;2.30;;
17201;SDS011;8717;53.588;10.176;2023-12-20T02:38:44;9.50;;;2.07;;
17201;SDS011;8717;53.588;10.176;2023-12-20T02:41:12;8.20;;;2.10;;
17201;SDS011;8717;53.588;10.176;2023-12-20T02:43:41;11.83;;;2.63;;
17201;SDS011;8717;53.588;10.176;2023-12-20T02:46:07;14.27;;;2.10;;
17201;SDS011;8717;53.588;10.176;2023-12-20T02:48:34;14.97;;;3.30;;
17201;SDS011;8717;53.588;10.176;2023-12-20T02:51:01;9.07;;;2.10;;
17201;SDS011;8717;53.588;10.176;2023-12-20T02:53:28;6.50;;;2.10;;
17201;SDS011;8717;53.588;10.176;2023-12-20T02:55:56;10.57;;;2.40;;
17201;SDS011;8717;53.588;10.176;2023-12-20T02:58:23;9.17;;;2.20;;
17201;SDS011;8717;53.588;10.176;2023-12-20T03:00:50;9.43;;;2.23;;
17201;SDS011;8717;53.588;10.176;2023-12-20T03:03:17;10.37;;;2.07;;
17201;SDS011;8717;53.588;10.176;2023-12-20T03:05:44;11.23;;;2.40;;
17201;SDS011;8717;53.588;10.176;2023-12-20T03:08:11;11.73;;;2.63;;
17201;SDS011;8717;53.588;10.176;2023-12-20T03:10:38;9.97;;;2.00;;
17201;SDS011;8717;53.588;10.176;2023-12-20T03:13:06;13.67;;;2.33;;
17201;SDS011;8717;53.588;10.176;2023-12-20T03:15:33;9.57;;;2.30;;
17201;SDS011;8717;53.588;10.176;2023-12-20T03:18:00;9.50;;;2.63;;
17201;SDS011;8717;53.588;10.176;2023-12-20T03:20:27;11.27;;;2.37;;
17201;SDS011;8717;53.588;10.176;2023-12-20T03:22:56;15.30;;;3.10;;
17201;SDS011;8717;53.588;10.176;2023-12-20T03:25:23;10.53;;;2.40;;
17201;SDS011;8717;53.588;10.176;2023-12-20T03:27:50;8.67;;;2.30;;
17201;SDS011;8717;53.588;10.176;2023-12-20T03:30:18;10.10;;;2.33;;
17201;SDS011;8717;53.588;10.176;2023-12-20T03:32:44;10.80;;;2.10;;
17201;SDS011;8717;53.588;10.176;2023-12-20T03:35:11;13.23;;;2.27;;
17201;SDS011;8717;53.588;10.176;2023-12-20T03:37:38;11.90;;;2.73;;
17201;SDS011;8717;53.588;10.176;2023-12-20T03:40:05;10.97;;;2.73;;
17201;SDS011;8717;53.588;10.176;2023-12-20T03:42:32;8.20;;;2.20;;
17201;SDS011;8717;53.588;10.176;2023-12-20T03:44:59;11.63;;;2.50;;
17201;SDS011;8717;53.588;10.176;2023-12-20T03:47:27;12.77;;;2.87;;
17201;SDS011;8717;53.588;10.176;2023-12-20T03:49:54;9.53;;;2.33;;
17201;SDS011;8717;53.588;10.176;2023-12-20T03:52:20;8.93;;;2.33;;
17201;SDS011;8717;53.588;10.176;2023-12-20T03:54:47;7.10;;;2.17;;
17201;SDS011;8717;53.588;10.176;2023-12-20T03:57:14;9.30;;;2.43;;
17201;SDS011;8717;53.588;10.176;2023-12-20T03:59:41;9.50;;;2.70;;
17201;SDS011;8717;53.588;10.176;2023-12-20T04:02:07;13.03;;;2.50;;
17201;SDS011;8717;53.588;10.176;2023-12-20T04:04:35;17.53;;;2.57;;
17201;SDS011;8717;53.588;10.176;2023-12-20T04:07:02;9.47;;;1.97;;
17201;SDS011;8717;53.588;10.176;2023-12-20T04:09:29;9.47;;;2.07;;
17201;SDS011;8717;53.588;10.176;2023-12-20T04:11:56;10.63;;;2.33;;
17201;SDS011;8717;53.588;10.176;2023-12-20T04:14:23;9.57;;;2.27;;
17201;SDS011;8717;53.588;10.176;2023-12-20T04:16:50;10.33;;;2.20;;
17201;SDS011;8717;53.588;10.176;2023-12-20T04:19:17;12.83;;;1.77;;
17201;SDS011;8717;53.588;10.176;2023-12-20T04:21:45;6.40;;;2.10;;
17201;SDS011;8717;53.588;10.176;2023-12-20T04:24:12;7.17;;;2.00;;
17201;SDS011;8717;53.588;10.176;2023-12-20T04:26:39;11.13;;;2.43;;
17201;SDS011;8717;53.588;10.176;2023-12-20T04:29:06;9.13;;;2.43;;
17201;SDS011;8717;53.588;10.176;2023-12-20T04:31:33;12.00;;;2.60;;
17201;SDS011;8717;53.588;10.176;2023-12-20T04:34:00;10.43;;;2.70;;
17201;SDS011;8717;53.588;10.176;2023-12-20T04:36:27;11.77;;;2.53;;
17201;SDS011;8717;53.588;10.176;2023-12-20T04:38:56;11.30;;;2.37;;
17201;SDS011;8717;53.588;10.176;2023-12-20T04:41:24;9.73;;;2.00;;
17201;SDS011;8717;53.588;10.176;2023-12-20T04:43:52;9.37;;;2.43;;
17201;SDS011;8717;53.588;10.176;2023-12-20T04:46:19;11.30;;;2.50;;
17201;SDS011;8717;53.588;10.176;2023-12-20T04:48:46;15.73;;;2.63;;
17201;SDS011;8717;53.588;10.176;2023-12-20T04:51:13;10.57;;;2.13;;
17201;SDS011;8717;53.588;10.176;2023-12-20T04:53:40;9.97;;;2.10;;
17201;SDS011;8717;53.588;10.176;2023-12-20T04:56:08;8.17;;;2.27;;
17201;SDS011;8717;53.588;10.176;2023-12-20T04:58:34;9.63;;;2.50;;
17201;SDS011;8717;53.588;10.176;2023-12-20T05:01:01;15.57;;;2.53;;
17201;SDS011;8717;53.588;10.176;2023-12-20T05:03:29;8.73;;;2.40;;
17201;SDS011;8717;53.588;10.176;2023-12-20T05:05:55;12.80;;;2.47;;
17201;SDS011;8717;53.588;10.176;2023-12-20T05:08:22;12.10;;;2.57;;
17201;SDS011;8717;53.588;10.176;2023-12-20T05:10:49;11.83;;;2.37;;
17201;SDS011;8717;53.588;10.176;2023-12-20T05:13:17;11.53;;;2.80;;
17201;SDS011;8717;53.588;10.176;2023-12-20T05:15:43;11.63;;;3.43;;
17201;SDS011;8717;53.588;10.176;2023-12-20T05:18:10;8.13;;;2.37;;
17201;SDS011;8717;53.588;10.176;2023-12-20T05:20:37;7.97;;;2.63;;
17201;SDS011;8717;53.588;10.176;2023-12-20T05:23:04;10.97;;;2.90;;
17201;SDS011;8717;53.588;10.176;2023-12-20T05:25:30;8.83;;;2.53;;
17201;SDS011;8717;53.588;10.176;2023-12-20T05:27:57;10.33;;;2.93;;
17201;SDS011;8717;53.588;10.176;2023-12-20T05:30:25;13.10;;;2.90;;
17201;SDS011;8717;53.588;10.176;2023-12-20T05:32:52;27.10;;;3.77;;
17201;SDS011;8717;53.588;10.176;2023-12-20T05:35:18;14.43;;;2.90;;
17201;SDS011;8717;53.588;10.176;2023-12-20T05:37:47;15.77;;;3.37;;
17201;SDS011;8717;53.588;10.176;2023-12-20T05:40:14;14.30;;;2.80;;
17201;SDS011;8717;53.588;10.176;2023-12-20T05:42:41;14.00;;;3.47;;
17201;SDS011;8717;53.588;10.176;2023-12-20T05:45:09;16.13;;;2.90;;
17201;SDS011;8717;53.588;10.176;2023-12-20T05:47:37;18.47;;;3.43;;
17201;SDS011;8717;53.588;10.176;2023-12-20T05:50:04;17.40;;;3.00;;
17201;SDS011;8717;53.588;10.176;2023-12-20T05:52:31;25.33;;;3.50;;
17201;SDS011;8717;53.588;10.176;2023-12-20T05:54:58;16.10;;;3.17;;
17201;SDS011;8717;53.588;10.176;2023-12-20T05:57:26;15.70;;;3.40;;
17201;SDS011;8717;53.588;10.176;2023-12-20T05:59:53;12.30;;;2.57;;
17201;SDS011;8717;53.588;10.176;2023-12-20T06:02:19;16.13;;;3.30;;
17201;SDS011;8717;53.588;10.176;2023-12-20T06:04:47;12.37;;;3.77;;
17201;SDS011;8717;53.588;10.176;2023-12-20T06:07:14;11.03;;;2.97;;
17201;SDS011;8717;53.588;10.176;2023-12-20T06:09:42;7.77;;;2.07;;
17201;SDS011;8717;53.588;10.176;2023-12-20T06:12:09;14.67;;;3.13;;
17201;SDS011;8717;53.588;10.176;2023-12-20T06:14:36;15.07;;;2.70;;
17201;SDS011;8717;53.588;10.176;2023-12-20T06:17:03;7.07;;;2.50;;
17201;SDS011;8717;53.588;10.176;2023-12-20T06:19:30;16.23;;;3.47;;
17201;SDS011;8717;53.588;10.176;2023-12-20T06:21:57;11.77;;;2.60;;
17201;SDS011;8717;53.588;10.176;2023-12-20T06:24:24;13.20;;;2.77;;
17201;SDS011;8717;53.588;10.176;2023-12-20T06:26:53;12.07;;;3.67;;
17201;SDS011;8717;53.588;10.176;2023-12-20T06:29:19;11.43;;;2.87;;
17201;SDS011;8717;53.588;10.176;2023-12-20T06:31:46;14.00;;;3.13;;
17201;SDS011;8717;53.588;10.176;2023-12-20T06:34:13;14.50;;;3.13;;
17201;SDS011;8717;53.588;10.176;2023-12-20T06:36:40;10.63;;;2.47;;
17201;SDS011;8717;53.588;10.176;2023-12-20T06:39:08;12.27;;;3.03;;
17201;SDS011;8717;53.588;10.176;2023-12-20T06:41:37;10.60;;;3.40;;
17201;SDS011;8717;53.588;10.176;2023-12-20T06:44:04;13.23;;;3.20;;
17201;SDS011;8717;53.588;10.176;2023-12-20T06:46:31;11.67;;;3.37;;
17201;SDS011;8717;53.588;10.176;2023-12-20T06:48:58;19.77;;;3.37;;
17201;SDS011;8717;53.588;10.176;2023-12-20T06:51:25;13.67;;;2.93;;
17201;SDS011;8717;53.588;10.176;2023-12-20T06:53:52;12.83;;;2.90;;
17201;SDS011;8717;53.588;10.176;2023-12-20T06:56:20;14.77;;;3.20;;
17201;SDS011;8717;53.588;10.176;2023-12-20T06:58:47;12.67;;;2.80;;
17201;SDS011;8717;53.588;10.176;2023-12-20T07:01:14;7.63;;;2.40;;
17201;SDS011;8717;53.588;10.176;2023-12-20T07:03:42;12.80;;;2.83;;
17201;SDS011;8717;53.588;10.176;2023-12-20T07:06:09;11.97;;;2.80;;
17201;SDS011;8717;53.588;10.176;2023-12-20T07:08:36;11.53;;;3.20;;
17201;SDS011;8717;53.588;10.176;2023-12-20T07:11:03;11.90;;;2.70;;
17201;SDS011;8717;53.588;10.176;2023-12-20T07:13:31;9.20;;;2.87;;
17201;SDS011;8717;53.588;10.176;2023-12-20T07:15:57;10.83;;;2.80;;
17201;SDS011;8717;53.588;10.176;2023-12-20T07:18:24;10.17;;;2.70;;
17201;SDS011;8717;53.588;10.176;2023-12-20T07:20:51;8.80;;;2.83;;
17201;SDS011;8717;53.588;10.176;2023-12-20T07:23:19;11.50;;;2.80;;
17201;SDS011;8717;53.588;10.176;2023-12-20T07:25:46;13.37;;;3.47;;
17201;SDS011;8717;53.588;10.176;2023-12-20T07:28:13;15.00;;;3.37;;
17201;SDS011;8717;53.588;10.176;2023-12-20T07:30:41;13.73;;;3.57;;
17201;SDS011;8717;53.588;10.176;2023-12-20T07:33:07;9.23;;;3.13;;
17201;SDS011;8717;53.588;10.176;2023-12-20T07:35:35;12.60;;;3.20;;
17201;SDS011;8717;53.588;10.176;2023-12-20T07:38:02;14.97;;;3.83;;
17201;SDS011;8717;53.588;10.176;2023-12-20T07:40:28;11.80;;;2.80;;
17201;SDS011;8717;53.588;10.176;2023-12-20T07:42:55;14.13;;;3.50;;
17201;SDS011;8717;53.588;10.176;2023-12-20T07:45:23;10.83;;;3.00;;
17201;SDS011;8717;53.588;10.176;2023-12-20T07:47:51;18.27;;;3.47;;
17201;SDS011;8717;53.588;10.176;2023-12-20T07:50:18;15.87;;;3.10;;
17201;SDS011;8717;53.588;10.176;2023-12-20T07:52:45;23.80;;;4.40;;
17201;SDS011;8717;53.588;10.176;2023-12-20T07:55:11;12.17;;;3.23;;
17201;SDS011;8717;53.588;10.176;2023-12-20T07:57:38;14.80;;;3.37;;
17201;SDS011;8717;53.588;10.176;2023-12-20T08:00:05;14.07;;;3.60;;
17201;SDS011;8717;53.588;10.176;2023-12-20T08:02:33;15.93;;;4.13;;
17201;SDS011;8717;53.588;10.176;2023-12-20T08:05:01;12.57;;;3.43;;
17201;SDS011;8717;53.588;10.176;2023-12-20T08:07:27;16.47;;;3.57;;
17201;SDS011;8717;53.588;10.176;2023-12-20T08:09:54;15.73;;;3.00;;
17201;SDS011;8717;53.588;10.176;2023-12-20T08:12:22;10.60;;;2.83;;
17201;SDS011;8717;53.588;10.176;2023-12-20T08:14:48;12.23;;;3.23;;
17201;SDS011;8717;53.588;10.176;2023-12-20T08:17:15;14.07;;;3.20;;
17201;SDS011;8717;53.588;10.176;2023-12-20T08:19:44;14.17;;;3.70;;
17201;SDS011;8717;53.588;10.176;2023-12-20T08:22:12;10.93;;;3.17;;
17201;SDS011;8717;53.588;10.176;2023-12-20T08:24:38;16.60;;;3.60;;
17201;SDS011;8717;53.588;10.176;2023-12-20T08:27:05;12.93;;;3.10;;
17201;SDS011;8717;53.588;10.176;2023-12-20T08:29:32;13.10;;;3.20;;
17201;SDS011;8717;53.588;10.176;2023-12-20T08:31:58;19.70;;;4.27;;
17201;SDS011;8717;53.588;10.176;2023-12-20T08:34:25;16.10;;;4.07;;
17201;SDS011;8717;53.588;10.176;2023-12-20T08:36:52;13.57;;;3.47;;
17201;SDS011;8717;53.588;10.176;2023-12-20T08:39:21;14.87;;;3.27;;
17201;SDS011;8717;53.588;10.176;2023-12-20T08:41:47;10.27;;;3.23;;
17201;SDS011;8717;53.588;10.176;2023-12-20T08:44:14;11.87;;;3.53;;
17201;SDS011;8717;53.588;10.176;2023-12-20T08:46:40;11.77;;;2.60;;
17201;SDS011;8717;53.588;10.176;2023-12-20T08:49:07;13.73;;;3.33;;
17201;SDS011;8717;53.588;10.176;2023-12-20T08:51:34;10.70;;;3.17;;
17201;SDS011;8717;53.588;10.176;2023-12-20T08:54:05;12.57;;;3.47;;
17201;SDS011;8717;53.588;10.176;2023-12-20T08:56:34;15.23;;;3.10;;
17201;SDS011;8717;53.588;10.176;2023-12-20T08:59:01;15.17;;;3.63;;
17201;SDS011;8717;53.588;10.176;2023-12-20T09:01:27;17.80;;;3.33;;
17201;SDS011;8717;53.588;10.176;2023-12-20T09:03:54;20.57;;;4.47;;
17201;SDS011;8717;53.588;10.176;2023-12-20T09:06:21;13.97;;;3.57;;
17201;SDS011;8717;53.588;10.176;2023-12-20T09:08:47;11.57;;;3.17;;
17201;SDS011;8717;53.588;10.176;2023-12-20T09:11:14;9.43;;;2.90;;
17201;SDS011;8717;53.588;10.176;2023-12-20T09:13:43;14.77;;;4.07;;
17201;SDS011;8717;53.588;10.176;2023-12-20T09:16:10;12.07;;;2.83;;
17201;SDS011;8717;53.588;10.176;2023-12-20T09:18:38;11.33;;;2.67;;
17201;SDS011;8717;53.588;10.176;2023-12-20T09:21:04;8.30;;;2.13;;
17201;SDS011;8717;53.588;10.176;2023-12-20T09:23:31;8.67;;;2.53;;
17201;SDS011;8717;53.588;10.176;2023-12-20T09:25:58;9.60;;;2.67;;
17201;SDS011;8717;53.588;10.176;2023-12-20T09:28:24;10.77;;;2.73;;
17201;SDS011;8717;53.588;10.176;2023-12-20T09:30:53;10.57;;;2.77;;
17201;SDS011;8717;53.588;10.176;2023-12-20T09:33:19;11.10;;;2.27;;
17201;SDS011;8717;53.588;10.176;2023-12-20T09:35:46;8.07;;;2.30;;
17201;SDS011;8717;53.588;10.176;2023-12-20T09:38:13;10.07;;;2.67;;
17201;SDS011;8717;53.588;10.176;2023-12-20T09:40:41;6.60;;;1.93;;
17201;SDS011;8717;53.588;10.176;2023-12-20T09:43:08;4.47;;;1.73;;
17201;SDS011;8717;53.588;10.176;2023-12-20T09:45:38;5.90;;;1.47;;
17201;SDS011;8717;53.588;10.176;2023-12-20T09:48:08;7.73;;;1.97;;
17201;SDS011;8717;53.588;10.176;2023-12-20T09:50:39;6.83;;;1.50;;
17201;SDS011;8717;53.588;10.176;2023-12-20T09:53:07;2.90;;;1.10;;
17201;SDS011;8717;53.588;10.176;2023-12-20T09:55:36;3.13;;;0.90;;
17201;SDS011;8717;53.588;10.176;2023-12-20T09:58:04;3.00;;;0.90;;
17201;SDS011;8717;53.588;10.176;2023-12-20T10:00:32;3.70;;;1.00;;
17201;SDS011;8717;53.588;10.176;2023-12-20T10:02:59;2.37;;;1.00;;
17201;SDS011;8717;53.588;10.176;2023-12-20T10:05:28;3.10;;;0.70;;
17201;SDS011;8717;53.588;10.176;2023-12-20T10:07:56;2.93;;;0.77;;
17201;SDS011;8717;53.588;10.176;2023-12-20T10:10:23;2.70;;;0.73;;
17201;SDS011;8717;53.588;10.176;2023-12-20T10:13:03;3.10;;;0.70;;
17201;SDS011;8717;53.588;10.176;2023-12-20T10:15:32;3.67;;;0.80;;
17201;SDS011;8717;53.588;10.176;2023-12-20T10:17:59;1.83;;;0.70;;
17201;SDS011;8717;53.588;10.176;2023-12-20T10:20:28;6.73;;;1.10;;
17201;SDS011;8717;53.588;10.176;2023-12-20T10:22:55;3.50;;;0.70;;
17201;SDS011;8717;53.588;10.176;2023-12-20T10:25:22;3.60;;;0.73;;
17201;SDS011;8717;53.588;10.176;2023-12-20T10:27:49;5.67;;;0.93;;
17201;SDS011;8717;53.588;10.176;2023-12-20T10:30:16;3.53;;;0.73;;
17201;SDS011;8717;53.588;10.176;2023-12-20T10:32:43;3.47;;;0.80;;
17201;SDS011;8717;53.588;10.176;2023-12-20T10:35:10;4.50;;;1.13;;
17201;SDS011;8717;53.588;10.176;2023-12-20T10:37:37;2.30;;;0.77;;
17201;SDS011;8717;53.588;10.176;2023-12-20T10:40:05;2.90;;;0.67;;
17201;SDS011;8717;53.588;10.176;2023-12-20T10:42:32;3.03;;;0.77;;
17201;SDS011;8717;53.588;10.176;2023-12-20T10:45:01;3.77;;;0.90;;
17201;SDS011;8717;53.588;10.176;2023-12-20T10:47:28;4.80;;;1.20;;
17201;SDS011;8717;53.588;10.176;2023-12-20T10:49:57;5.70;;;1.10;;
17201;SDS011;8717;53.588;10.176;2023-12-20T10:52:26;4.37;;;1.37;;
17201;SDS011;8717;53.588;10.176;2023-12-20T10:54:56;6.73;;;0.93;;
17201;SDS011;8717;53.588;10.176;2023-12-20T10:57:23;4.40;;;0.80;;
17201;SDS011;8717;53.588;10.176;2023-12-20T10:59:52;3.80;;;1.10;;
17201;SDS011;8717;53.588;10.176;2023-12-20T11:02:21;2.80;;;0.87;;
17201;SDS011;8717;53.588;10.176;2023-12-20T11:04:50;3.77;;;0.90;;
17201;SDS011;8717;53.588;10.176;2023-12-20T11:07:21;6.60;;;2.20;;
17201;SDS011;8717;53.588;10.176;2023-12-20T11:09:54;7.63;;;1.40;;
17201;SDS011;8717;53.588;10.176;2023-12-20T11:12:29;5.40;;;1.33;;
17201;SDS011;8717;53.588;10.176;2023-12-20T11:15:04;5.57;;;1.33;;
17201;SDS011;8717;53.588;10.176;2023-12-20T11:17:32;5.57;;;1.57;;
17201;SDS011;8717;53.588;10.176;2023-12-20T11:20:06;4.40;;;1.30;;
17201;SDS011;8717;53.588;10.176;2023-12-20T11:22:39;5.33;;;1.37;;
17201;SDS011;8717;53.588;10.176;2023-12-20T11:25:19;5.07;;;1.30;;
17201;SDS011;8717;53.588;10.176;2023-12-20T11:28:06;6.20;;;1.43;;
17201;SDS011;8717;53.588;10.176;2023-12-20T11:30:40;5.80;;;1.23;;
17201;SDS011;8717;53.588;10.176;2023-12-20T11:33:08;6.73;;;1.20;;
17201;SDS011;8717;53.588;10.176;2023-12-20T11:35:34;6.50;;;1.67;;
17201;SDS011;8717;53.588;10.176;2023-12-20T11:38:02;6.00;;;1.10;;
17201;SDS011;8717;53.588;10.176;2023-12-20T11:40:31;6.63;;;1.50;;
17201;SDS011;8717;53.588;10.176;2023-12-20T11:43:00;5.67;;;1.30;;
17201;SDS011;8717;53.588;10.176;2023-12-20T11:45:27;3.20;;;1.03;;
17201;SDS011;8717;53.588;10.176;2023-12-20T11:47:54;2.27;;;1.03;;
17201;SDS011;8717;53.588;10.176;2023-12-20T11:50:23;7.37;;;1.17;;
17201;SDS011;8717;53.588;10.176;2023-12-20T11:52:51;2.93;;;0.80;;
17201;SDS011;8717;53.588;10.176;2023-12-20T11:55:19;4.57;;;1.70;;
17201;SDS011;8717;53.588;10.176;2023-12-20T11:57:47;2.73;;;0.90;;
17201;SDS011;8717;53.588;10.176;2023-12-20T12:00:13;4.47;;;1.03;;
17201;SDS011;8717;53.588;10.176;2023-12-20T12:02:41;5.30;;;1.20;;
17201;SDS011;8717;53.588;10.176;2023-12-20T12:05:08;4.97;;;1.63;;
17201;SDS011;8717;53.588;10.176;2023-12-20T12:07:35;6.17;;;1.53;;
17201;SDS011;8717;53.588;10.176;2023-12-20T12:10:01;5.07;;;1.53;;
17201;SDS011;8717;53.588;10.176;2023-12-20T12:12:29;6.27;;;2.10;;
17201;SDS011;8717;53.588;10.176;2023-12-20T12:14:58;7.67;;;2.10;;
17201;SDS011;8717;53.588;10.176;2023-12-20T12:17:25;10.43;;;2.10;;
17201;SDS011;8717;53.588;10.176;2023-12-20T12:19:52;11.47;;;2.40;;
17201;SDS011;8717;53.588;10.176;2023-12-20T12:22:29;8.27;;;2.30;;
17201;SDS011;8717;53.588;10.176;2023-12-20T12:24:58;10.20;;;2.50;;
17201;SDS011;8717;53.588;10.176;2023-12-20T12:27:25;7.23;;;2.00;;
17201;SDS011;8717;53.588;10.176;2023-12-20T12:30:01;11.27;;;2.00;;
17201;SDS011;8717;53.588;10.176;2023-12-20T12:32:29;11.47;;;2.40;;
17201;SDS011;8717;53.588;10.176;2023-12-20T12:34:55;9.60;;;2.07;;
17201;SDS011;8717;53.588;10.176;2023-12-20T12:37:22;12.90;;;2.43;;
17201;SDS011;8717;53.588;10.176;2023-12-20T12:39:49;7.90;;;2.30;;
17201;SDS011;8717;53.588;10.176;2023-12-20T12:42:19;10.90;;;2.20;;
17201;SDS011;8717;53.588;10.176;2023-12-20T12:44:46;10.20;;;2.57;;
17201;SDS011;8717;53.588;10.176;2023-12-20T12:47:14;12.37;;;2.80;;
17201;SDS011;8717;53.588;10.176;2023-12-20T12:49:41;8.90;;;2.50;;
17201;SDS011;8717;53.588;10.176;2023-12-20T12:52:08;9.47;;;2.70;;
17201;SDS011;8717;53.588;10.176;2023-12-20T12:54:34;11.93;;;2.77;;
17201;SDS011;8717;53.588;10.176;2023-12-20T12:57:01;12.03;;;2.80;;
17201;SDS011;8717;53.588;10.176;2023-12-20T12:59:28;14.10;;;3.33;;
17201;SDS011;8717;53.588;10.176;2023-12-20T13:01:55;12.80;;;2.90;;
17201;SDS011;8717;53.588;10.176;2023-12-20T13:04:23;15.13;;;3.77;;
17201;SDS011;8717;53.588;10.176;2023-12-20T13:06:49;16.73;;;3.87;;
17201;SDS011;8717;53.588;10.176;2023-12-20T13:09:16;15.17;;;3.20;;
17201;SDS011;8717;53.588;10.176;2023-12-20T13:11:44;14.97;;;3.53;;
17201;SDS011;8717;53.588;10.176;2023-12-20T13:14:11;14.17;;;2.70;;
17201;SDS011;8717;53.588;10.176;2023-12-20T13:16:40;13.90;;;2.77;;
17201;SDS011;8717;53.588;10.176;2023-12-20T13:19:07;11.70;;;2.53;;
17201;SDS011;8717;53.588;10.176;2023-12-20T13:21:36;15.07;;;2.70;;
17201;SDS011;8717;53.588;10.176;2023-12-20T13:24:03;13.43;;;3.07;;
17201;SDS011;8717;53.588;10.176;2023-12-20T13:26:30;15.90;;;3.33;;
17201;SDS011;8717;53.588;10.176;2023-12-20T13:28:57;12.10;;;3.40;;
17201;SDS011;8717;53.588;10.176;2023-12-20T13:31:23;13.53;;;2.77;;
17201;SDS011;8717;53.588;10.176;2023-12-20T13:33:50;13.30;;;3.53;;
17201;SDS011;8717;53.588;10.176;2023-12-20T13:36:17;12.77;;;3.30;;
17201;SDS011;8717;53.588;10.176;2023-12-20T13:38:45;14.97;;;3.43;;
17201;SDS011;8717;53.588;10.176;2023-12-20T13:41:12;12.70;;;3.03;;
17201;SDS011;8717;53.588;10.176;2023-12-20T13:43:38;12.80;;;3.50;;
17201;SDS011;8717;53.588;10.176;2023-12-20T13:46:05;14.20;;;3.47;;
17201;SDS011;8717;53.588;10.176;2023-12-20T13:48:32;11.07;;;3.33;;
17201;SDS011;8717;53.588;10.176;2023-12-20T13:50:59;18.47;;;3.77;;
17201;SDS011;8717;53.588;10.176;2023-12-20T13:53:25;13.60;;;3.47;;
17201;SDS011;8717;53.588;10.176;2023-12-20T13:55:54;13.67;;;3.50;;
17201;SDS011;8717;53.588;10.176;2023-12-20T13:58:21;18.20;;;3.70;;
17201;SDS011;8717;53.588;10.176;2023-12-20T14:00:48;19.43;;;3.73;;
17201;SDS011;8717;53.588;10.176;2023-12-20T14:03:14;15.23;;;3.47;;
17201;SDS011;8717;53.588;10.176;2023-12-20T14:05:41;17.00;;;3.63;;
17201;SDS011;8717;53.588;10.176;2023-12-20T14:08:08;16.17;;;4.03;;
17201;SDS011;8717;53.588;10.176;2023-12-20T14:10:35;17.27;;;4.30;;
17201;SDS011;8717;53.588;10.176;2023-12-20T14:13:03;17.90;;;4.13;;
17201;SDS011;8717;53.588;10.176;2023-12-20T14:15:30;15.93;;;4.40;;
17201;SDS011;8717;53.588;10.176;2023-12-20T14:18:02;18.97;;;4.60;;
17201;SDS011;8717;53.588;10.176;2023-12-20T14:20:30;17.53;;;4.80;;
17201;SDS011;8717;53.588;10.176;2023-12-20T14:22:59;15.33;;;4.37;;
17201;SDS011;8717;53.588;10.176;2023-12-20T14:25:26;16.63;;;4.37;;
17201;SDS011;8717;53.588;10.176;2023-12-20T14:27:52;20.63;;;4.30;;
17201;SDS011;8717;53.588;10.176;2023-12-20T14:30:20;17.80;;;4.73;;
17201;SDS011;8717;53.588;10.176;2023-12-20T14:32:47;16.77;;;4.67;;
17201;SDS011;8717;53.588;10.176;2023-12-20T14:35:14;17.63;;;4.67;;
17201;SDS011;8717;53.588;10.176;2023-12-20T14:37:40;13.63;;;4.20;;
17201;SDS011;8717;53.588;10.176;2023-12-20T14:40:07;18.40;;;4.73;;